sensor_id;sensor_type;location;lat;lon;timestamp;pressure;altitude;pressure_sealevel;temperature;humidity
76374;BME280;65197;50.164;8.012;2023-07-29T00:01:49;71796.41;;;-144.13;100.00
76374;BME280;65197;50.164;8.012;2023-07-29T00:04:15;71794.47;;;-144.13;100.00
76374;BME280;65197;50.164;8.012;2023-07-29T00:06:40;71792.50;;;-144.13;100.00
76374;BME280;65197;50.164;8.012;2023-07-29T00:09:05;71790.56;;;-144.13;100.00
76374;BME280;65197;50.164;8.012;2023-07-29T00:11:31;71790.56;;;-144.13;100.00
76374;BME280;65197;50.164;8.012;2023-07-29T00:14:01;71790.56;;;-144.13;100.00
76374;BME280;65197;50.164;8.012;2023-07-29T00:16:27;71794.47;;;-144.13;100.00
76374;BME280;65197;50.164;8.012;2023-07-29T00:18:52;71790.56;;;-144.13;100.00
76374;BME280;65197;50.164;8.012;2023-07-29T00:21:18;71788.59;;;-144.13;100.00
76374;BME280;65197;50.164;8.012;2023-07-29T00:23:43;71782.75;;;-144.13;100.00
76374;BME280;65197;50.164;8.012;2023-07-29T00:26:09;71774.97;;;-144.13;100.00
76374;BME280;65197;50.164;8.012;2023-07-29T00:28:34;71774.97;;;-144.13;100.00
76374;BME280;65197;50.164;8.012;2023-07-29T00:30:59;71773.00;;;-144.13;100.00
76374;BME280;65197;50.164;8.012;2023-07-29T00:33:25;71782.75;;;-144.13;100.00
76374;BME280;65197;50.164;8.012;2023-07-29T00:35:50;71782.75;;;-144.13;100.00
76374;BME280;65197;50.164;8.012;2023-07-29T00:38:16;71782.75;;;-144.13;100.00
76374;BME280;65197;50.164;8.012;2023-07-29T00:40:41;71780.81;;;-144.13;100.00
76374;BME280;65197;50.164;8.012;2023-07-29T00:43:07;71776.91;;;-144.13;100.00
76374;BME280;65197;50.164;8.012;2023-07-29T00:45:33;71774.97;;;-144.13;100.00
76374;BME280;65197;50.164;8.012;2023-07-29T00:47:59;71776.91;;;-144.13;100.00
76374;BME280;65197;50.164;8.012;2023-07-29T00:50:25;71778.88;;;-144.13;100.00
76374;BME280;65197;50.164;8.012;2023-07-29T00:52:53;71778.88;;;-144.13;100.00
76374;BME280;65197;50.164;8.012;2023-07-29T00:55:19;71778.88;;;-144.13;100.00
76374;BME280;65197;50.164;8.012;2023-07-29T00:57:45;71778.88;;;-144.13;100.00
76374;BME280;65197;50.164;8.012;2023-07-29T01:00:14;71778.88;;;-144.13;100.00
76374;BME280;65197;50.164;8.012;2023-07-29T01:05:16;71767.16;;;-144.13;100.00
76374;BME280;65197;50.164;8.012;2023-07-29T01:13:12;71782.75;;;-144.13;100.00
76374;BME280;65197;50.164;8.012;2023-07-29T01:16:01;71784.72;;;-144.13;100.00
76374;BME280;65197;50.164;8.012;2023-07-29T01:18:31;71778.88;;;-144.13;100.00
76374;BME280;65197;50.164;8.012;2023-07-29T01:20:59;71778.88;;;-144.13;100.00
76374;BME280;65197;50.164;8.012;2023-07-29T01:23:28;71773.00;;;-144.13;100.00
76374;BME280;65197;50.164;8.012;2023-07-29T01:25:54;71771.06;;;-144.13;100.00
76374;BME280;65197;50.164;8.012;2023-07-29T01:28:20;71767.16;;;-144.13;100.00
76374;BME280;65197;50.164;8.012;2023-07-29T01:30:49;71747.66;;;-144.13;100.00
76374;BME280;65197;50.164;8.012;2023-07-29T01:33:21;71751.56;;;-144.13;100.00
76374;BME280;65197;50.164;8.012;2023-07-29T01:38:21;71749.63;;;-144.13;100.00
76374;BME280;65197;50.164;8.012;2023-07-29T01:40:50;71743.75;;;-144.13;100.00
76374;BME280;65197;50.164;8.012;2023-07-29T01:43:16;71732.06;;;-144.13;100.00
76374;BME280;65197;50.164;8.012;2023-07-29T01:45:44;71735.97;;;-144.13;100.00
76374;BME280;65197;50.164;8.012;2023-07-29T01:48:09;71726.22;;;-144.13;100.00
76374;BME280;65197;50.164;8.012;2023-07-29T01:50:35;71722.31;;;-144.13;100.00
76374;BME280;65197;50.164;8.012;2023-07-29T01:53:00;71718.41;;;-144.13;100.00
76374;BME280;65197;50.164;8.012;2023-07-29T01:55:26;71720.38;;;-144.13;100.00
76374;BME280;65197;50.164;8.012;2023-07-29T01:57:51;71708.66;;;-144.13;100.00
76374;BME280;65197;50.164;8.012;2023-07-29T02:00:18;71712.56;;;-144.13;100.00
76374;BME280;65197;50.164;8.012;2023-07-29T02:02:43;71708.66;;;-144.13;100.00
76374;BME280;65197;50.164;8.012;2023-07-29T02:05:08;71708.66;;;-144.13;100.00
76374;BME280;65197;50.164;8.012;2023-07-29T02:07:34;71708.66;;;-144.13;100.00
76374;BME280;65197;50.164;8.012;2023-07-29T02:09:59;71706.72;;;-144.13;100.00
76374;BME280;65197;50.164;8.012;2023-07-29T02:12:25;71700.88;;;-144.13;100.00
76374;BME280;65197;50.164;8.012;2023-07-29T02:14:50;71698.91;;;-144.13;100.00
76374;BME280;65197;50.164;8.012;2023-07-29T02:17:15;71695.00;;;-144.13;100.00
76374;BME280;65197;50.164;8.012;2023-07-29T02:19:41;71693.06;;;-144.13;100.00
76374;BME280;65197;50.164;8.012;2023-07-29T02:22:06;71691.13;;;-144.13;100.00
76374;BME280;65197;50.164;8.012;2023-07-29T02:24:32;71695.00;;;-144.13;100.00
76374;BME280;65197;50.164;8.012;2023-07-29T02:26:57;71683.31;;;-144.13;100.00
76374;BME280;65197;50.164;8.012;2023-07-29T02:29:23;71685.28;;;-144.13;100.00
76374;BME280;65197;50.164;8.012;2023-07-29T02:31:48;71679.41;;;-144.13;100.00
76374;BME280;65197;50.164;8.012;2023-07-29T02:34:13;71681.38;;;-144.13;100.00
76374;BME280;65197;50.164;8.012;2023-07-29T02:36:39;71681.38;;;-144.13;100.00
76374;BME280;65197;50.164;8.012;2023-07-29T02:39:04;71677.47;;;-144.13;100.00
76374;BME280;65197;50.164;8.012;2023-07-29T02:41:31;71669.66;;;-144.13;100.00
76374;BME280;65197;50.164;8.012;2023-07-29T02:43:56;71669.66;;;-144.13;100.00
76374;BME280;65197;50.164;8.012;2023-07-29T02:46:22;71657.97;;;-144.13;100.00
76374;BME280;65197;50.164;8.012;2023-07-29T02:48:47;71661.88;;;-144.13;100.00
76374;BME280;65197;50.164;8.012;2023-07-29T02:51:13;71657.97;;;-144.13;100.00
76374;BME280;65197;50.164;8.012;2023-07-29T02:53:38;71657.97;;;-144.13;100.00
76374;BME280;65197;50.164;8.012;2023-07-29T02:56:04;71656.03;;;-144.13;100.00
76374;BME280;65197;50.164;8.012;2023-07-29T02:58:29;71650.16;;;-144.13;100.00
76374;BME280;65197;50.164;8.012;2023-07-29T03:01:02;71654.06;;;-144.13;100.00
76374;BME280;65197;50.164;8.012;2023-07-29T03:03:28;71644.31;;;-144.13;100.00
76374;BME280;65197;50.164;8.012;2023-07-29T03:06:06;71646.28;;;-144.13;100.00
76374;BME280;65197;50.164;8.012;2023-07-29T03:08:32;71644.31;;;-144.13;100.00
76374;BME280;65197;50.164;8.012;2023-07-29T03:10:57;71642.38;;;-144.13;100.00
76374;BME280;65197;50.164;8.012;2023-07-29T03:13:23;71642.38;;;-144.13;100.00
76374;BME280;65197;50.164;8.012;2023-07-29T03:15:48;71650.16;;;-144.13;100.00
76374;BME280;65197;50.164;8.012;2023-07-29T03:18:15;71642.38;;;-144.13;100.00
76374;BME280;65197;50.164;8.012;2023-07-29T03:20:40;71644.31;;;-144.13;100.00
76374;BME280;65197;50.164;8.012;2023-07-29T03:23:05;71644.31;;;-144.13;100.00
76374;BME280;65197;50.164;8.012;2023-07-29T03:25:31;71648.22;;;-144.13;100.00
76374;BME280;65197;50.164;8.012;2023-07-29T03:27:57;71650.16;;;-144.13;100.00
76374;BME280;65197;50.164;8.012;2023-07-29T03:30:22;71654.06;;;-144.13;100.00
76374;BME280;65197;50.164;8.012;2023-07-29T03:32:48;71659.91;;;-144.13;100.00
76374;BME280;65197;50.164;8.012;2023-07-29T03:35:14;71661.88;;;-144.13;100.00
76374;BME280;65197;50.164;8.012;2023-07-29T03:37:40;71650.16;;;-144.13;100.00
76374;BME280;65197;50.164;8.012;2023-07-29T03:40:06;71654.06;;;-144.13;100.00
76374;BME280;65197;50.164;8.012;2023-07-29T03:42:32;71661.88;;;-144.13;100.00
76374;BME280;65197;50.164;8.012;2023-07-29T03:44:57;71661.88;;;-144.13;100.00
76374;BME280;65197;50.164;8.012;2023-07-29T03:47:23;71661.88;;;-144.13;100.00
76374;BME280;65197;50.164;8.012;2023-07-29T03:49:48;71654.06;;;-144.13;100.00
76374;BME280;65197;50.164;8.012;2023-07-29T03:52:14;71654.06;;;-144.13;100.00
76374;BME280;65197;50.164;8.012;2023-07-29T03:54:39;71656.03;;;-144.13;100.00
76374;BME280;65197;50.164;8.012;2023-07-29T03:57:05;71657.97;;;-144.13;100.00
76374;BME280;65197;50.164;8.012;2023-07-29T03:59:30;71657.97;;;-144.13;100.00
76374;BME280;65197;50.164;8.012;2023-07-29T04:01:56;71654.06;;;-144.13;100.00
76374;BME280;65197;50.164;8.012;2023-07-29T04:04:21;71646.28;;;-144.13;100.00
76374;BME280;65197;50.164;8.012;2023-07-29T04:06:46;71642.38;;;-144.13;100.00
76374;BME280;65197;50.164;8.012;2023-07-29T04:09:12;71648.22;;;-144.13;100.00
76374;BME280;65197;50.164;8.012;2023-07-29T04:11:38;71646.28;;;-144.13;100.00
76374;BME280;65197;50.164;8.012;2023-07-29T04:14:03;71652.13;;;-144.13;100.00
76374;BME280;65197;50.164;8.012;2023-07-29T04:16:29;71652.13;;;-144.13;100.00
76374;BME280;65197;50.164;8.012;2023-07-29T04:18:54;71648.22;;;-144.13;100.00
76374;BME280;65197;50.164;8.012;2023-07-29T04:21:19;71650.16;;;-144.13;100.00
76374;BME280;65197;50.164;8.012;2023-07-29T04:23:45;71650.16;;;-144.13;100.00
76374;BME280;65197;50.164;8.012;2023-07-29T04:26:10;71650.16;;;-144.13;100.00
76374;BME280;65197;50.164;8.012;2023-07-29T04:28:36;71654.06;;;-144.13;100.00
76374;BME280;65197;50.164;8.012;2023-07-29T04:31:01;71654.06;;;-144.13;100.00
76374;BME280;65197;50.164;8.012;2023-07-29T04:33:28;71650.16;;;-144.13;100.00
76374;BME280;65197;50.164;8.012;2023-07-29T04:35:54;71650.16;;;-144.13;100.00
76374;BME280;65197;50.164;8.012;2023-07-29T04:38:19;71652.13;;;-144.13;100.00
76374;BME280;65197;50.164;8.012;2023-07-29T04:40:44;71650.16;;;-144.13;100.00
76374;BME280;65197;50.164;8.012;2023-07-29T04:43:10;71646.28;;;-144.13;100.00
76374;BME280;65197;50.164;8.012;2023-07-29T04:45:35;71650.16;;;-144.13;100.00
76374;BME280;65197;50.164;8.012;2023-07-29T04:48:01;71646.28;;;-144.13;100.00
76374;BME280;65197;50.164;8.012;2023-07-29T04:50:26;71650.16;;;-144.13;100.00
76374;BME280;65197;50.164;8.012;2023-07-29T04:52:51;71650.16;;;-144.13;100.00
76374;BME280;65197;50.164;8.012;2023-07-29T04:55:18;71650.16;;;-144.13;100.00
76374;BME280;65197;50.164;8.012;2023-07-29T04:57:43;71657.97;;;-144.13;100.00
76374;BME280;65197;50.164;8.012;2023-07-29T05:00:09;71648.22;;;-144.13;100.00
76374;BME280;65197;50.164;8.012;2023-07-29T05:02:35;71646.28;;;-144.13;100.00
76374;BME280;65197;50.164;8.012;2023-07-29T05:05:00;71646.28;;;-144.13;100.00
76374;BME280;65197;50.164;8.012;2023-07-29T05:07:25;71642.38;;;-144.13;100.00
76374;BME280;65197;50.164;8.012;2023-07-29T05:09:51;71634.56;;;-144.13;100.00
76374;BME280;65197;50.164;8.012;2023-07-29T05:12:16;71630.66;;;-144.13;100.00
76374;BME280;65197;50.164;8.012;2023-07-29T05:14:42;71618.97;;;-144.13;100.00
76374;BME280;65197;50.164;8.012;2023-07-29T05:17:07;71611.19;;;-144.13;100.00
76374;BME280;65197;50.164;8.012;2023-07-29T05:19:32;71611.19;;;-144.13;100.00
76374;BME280;65197;50.164;8.012;2023-07-29T05:21:58;71611.19;;;-144.13;100.00
76374;BME280;65197;50.164;8.012;2023-07-29T05:24:23;71609.22;;;-144.13;100.00
76374;BME280;65197;50.164;8.012;2023-07-29T05:26:49;71613.13;;;-144.13;100.00
76374;BME280;65197;50.164;8.012;2023-07-29T05:29:14;71611.19;;;-144.13;100.00
76374;BME280;65197;50.164;8.012;2023-07-29T05:31:40;71613.13;;;-144.13;100.00
76374;BME280;65197;50.164;8.012;2023-07-29T05:34:05;71618.97;;;-144.13;100.00
76374;BME280;65197;50.164;8.012;2023-07-29T05:36:31;71620.91;;;-144.13;100.00
76374;BME280;65197;50.164;8.012;2023-07-29T05:38:56;71630.66;;;-144.13;100.00
76374;BME280;65197;50.164;8.012;2023-07-29T05:41:22;71650.16;;;-144.13;100.00
76374;BME280;65197;50.164;8.012;2023-07-29T05:43:47;71654.06;;;-144.13;100.00
76374;BME280;65197;50.164;8.012;2023-07-29T05:46:12;71657.97;;;-144.13;100.00
76374;BME280;65197;50.164;8.012;2023-07-29T05:48:38;71657.97;;;-144.13;100.00
76374;BME280;65197;50.164;8.012;2023-07-29T05:51:03;71661.88;;;-144.13;100.00
76374;BME280;65197;50.164;8.012;2023-07-29T05:53:32;71657.97;;;-144.13;100.00
76374;BME280;65197;50.164;8.012;2023-07-29T05:55:57;71661.88;;;-144.13;100.00
76374;BME280;65197;50.164;8.012;2023-07-29T05:58:22;71654.06;;;-144.13;100.00
76374;BME280;65197;50.164;8.012;2023-07-29T06:00:48;71657.97;;;-144.13;100.00
76374;BME280;65197;50.164;8.012;2023-07-29T06:03:13;71665.78;;;-144.13;100.00
76374;BME280;65197;50.164;8.012;2023-07-29T06:05:39;71661.88;;;-144.13;100.00
76374;BME280;65197;50.164;8.012;2023-07-29T06:08:05;71650.16;;;-144.13;100.00
76374;BME280;65197;50.164;8.012;2023-07-29T06:10:30;71650.16;;;-144.13;100.00
76374;BME280;65197;50.164;8.012;2023-07-29T06:12:55;71634.56;;;-144.13;100.00
76374;BME280;65197;50.164;8.012;2023-07-29T06:15:21;71632.63;;;-144.13;100.00
76374;BME280;65197;50.164;8.012;2023-07-29T06:17:48;71634.56;;;-144.13;100.00
76374;BME280;65197;50.164;8.012;2023-07-29T06:20:13;71642.38;;;-144.13;100.00
76374;BME280;65197;50.164;8.012;2023-07-29T06:22:39;71646.28;;;-144.13;100.00
76374;BME280;65197;50.164;8.012;2023-07-29T06:25:04;71650.16;;;-144.13;100.00
76374;BME280;65197;50.164;8.012;2023-07-29T06:27:30;71659.91;;;-144.13;100.00
76374;BME280;65197;50.164;8.012;2023-07-29T06:29:55;71652.13;;;-144.13;100.00
76374;BME280;65197;50.164;8.012;2023-07-29T06:32:20;71654.06;;;-144.13;100.00
76374;BME280;65197;50.164;8.012;2023-07-29T06:34:46;71669.66;;;-144.13;100.00
76374;BME280;65197;50.164;8.012;2023-07-29T06:37:11;71669.66;;;-144.13;100.00
76374;BME280;65197;50.164;8.012;2023-07-29T06:39:37;71677.47;;;-144.13;100.00
76374;BME280;65197;50.164;8.012;2023-07-29T06:42:02;71671.63;;;-144.13;100.00
76374;BME280;65197;50.164;8.012;2023-07-29T06:44:28;71669.66;;;-144.13;100.00
76374;BME280;65197;50.164;8.012;2023-07-29T06:46:53;71657.97;;;-144.13;100.00
76374;BME280;65197;50.164;8.012;2023-07-29T06:49:20;71634.56;;;-144.13;100.00
76374;BME280;65197;50.164;8.012;2023-07-29T06:51:45;71656.03;;;-144.13;100.00
76374;BME280;65197;50.164;8.012;2023-07-29T06:54:10;71685.28;;;-144.13;100.00
76374;BME280;65197;50.164;8.012;2023-07-29T06:56:36;71691.13;;;-144.13;100.00
76374;BME280;65197;50.164;8.012;2023-07-29T06:59:02;71685.28;;;-144.13;100.00
76374;BME280;65197;50.164;8.012;2023-07-29T07:01:27;71683.31;;;-144.13;100.00
76374;BME280;65197;50.164;8.012;2023-07-29T07:03:53;71665.78;;;-144.13;100.00
76374;BME280;65197;50.164;8.012;2023-07-29T07:06:21;71656.03;;;-144.13;100.00
76374;BME280;65197;50.164;8.012;2023-07-29T07:08:47;71654.06;;;-144.13;100.00
76374;BME280;65197;50.164;8.012;2023-07-29T07:11:13;71652.13;;;-144.13;100.00
76374;BME280;65197;50.164;8.012;2023-07-29T07:13:38;71656.03;;;-144.13;100.00
76374;BME280;65197;50.164;8.012;2023-07-29T07:16:03;71638.47;;;-144.13;100.00
76374;BME280;65197;50.164;8.012;2023-07-29T07:18:29;71622.88;;;-144.13;100.00
76374;BME280;65197;50.164;8.012;2023-07-29T07:20:55;71615.06;;;-144.13;100.00
76374;BME280;65197;50.164;8.012;2023-07-29T07:23:20;71617.03;;;-144.13;100.00
76374;BME280;65197;50.164;8.012;2023-07-29T07:25:45;71615.06;;;-144.13;100.00
76374;BME280;65197;50.164;8.012;2023-07-29T07:28:11;71599.47;;;-144.13;100.00
76374;BME280;65197;50.164;8.012;2023-07-29T07:30:40;71579.97;;;-144.13;100.00
76374;BME280;65197;50.164;8.012;2023-07-29T07:33:06;71529.28;;;-144.13;100.00
76374;BME280;65197;50.164;8.012;2023-07-29T07:35:32;71453.25;;;-144.13;100.00
76374;BME280;65197;50.164;8.012;2023-07-29T07:37:57;71435.69;;;-144.13;100.00
76374;BME280;65197;50.164;8.012;2023-07-29T07:40:24;71433.75;;;-144.13;100.00
76374;BME280;65197;50.164;8.012;2023-07-29T07:42:49;71373.31;;;-144.13;100.00
76374;BME280;65197;50.164;8.012;2023-07-29T07:45:14;71344.06;;;-144.13;100.00
76374;BME280;65197;50.164;8.012;2023-07-29T07:47:40;71334.31;;;-144.13;100.00
76374;BME280;65197;50.164;8.012;2023-07-29T07:50:05;71332.38;;;-144.13;100.00
76374;BME280;65197;50.164;8.012;2023-07-29T07:52:31;71326.50;;;-144.13;100.00
76374;BME280;65197;50.164;8.012;2023-07-29T07:54:56;71287.53;;;-144.13;100.00
76374;BME280;65197;50.164;8.012;2023-07-29T07:57:22;71256.31;;;-144.13;100.00
76374;BME280;65197;50.164;8.012;2023-07-29T07:59:47;71176.41;;;-144.13;97.68
76374;BME280;65197;50.164;8.012;2023-07-29T08:02:12;71240.72;;;-144.13;100.00
76374;BME280;65197;50.164;8.012;2023-07-29T08:04:38;71322.63;;;-144.13;100.00
76374;BME280;65197;50.164;8.012;2023-07-29T08:07:03;71363.56;;;-144.13;100.00
76374;BME280;65197;50.164;8.012;2023-07-29T08:09:29;71363.56;;;-144.13;100.00
76374;BME280;65197;50.164;8.012;2023-07-29T08:11:54;71367.47;;;-144.13;100.00
76374;BME280;65197;50.164;8.012;2023-07-29T08:14:20;71346.00;;;-144.13;100.00
76374;BME280;65197;50.164;8.012;2023-07-29T08:16:45;71283.63;;;-144.13;100.00
76374;BME280;65197;50.164;8.012;2023-07-29T08:19:10;71275.81;;;-144.13;99.04
76374;BME280;65197;50.164;8.012;2023-07-29T08:21:36;71193.94;;;-144.13;96.82
76374;BME280;65197;50.164;8.012;2023-07-29T08:24:01;71158.84;;;-144.13;92.44
76374;BME280;65197;50.164;8.012;2023-07-29T08:26:27;71121.81;;;-144.13;91.85
76374;BME280;65197;50.164;8.012;2023-07-29T08:28:53;71133.50;;;-144.13;94.86
76374;BME280;65197;50.164;8.012;2023-07-29T08:31:18;71178.34;;;-144.13;96.62
76374;BME280;65197;50.164;8.012;2023-07-29T08:33:43;71186.16;;;-144.13;95.53
76374;BME280;65197;50.164;8.012;2023-07-29T08:36:09;71190.03;;;-144.13;94.71
76374;BME280;65197;50.164;8.012;2023-07-29T08:38:34;71186.16;;;-144.13;94.85
76374;BME280;65197;50.164;8.012;2023-07-29T08:41:10;71096.47;;;-144.13;89.90
76374;BME280;65197;50.164;8.012;2023-07-29T08:43:39;70991.19;;;-144.13;88.38
76374;BME280;65197;50.164;8.012;2023-07-29T08:46:06;70946.34;;;-144.13;79.53
76374;BME280;65197;50.164;8.012;2023-07-29T08:48:37;70878.13;;;-144.13;80.26
76374;BME280;65197;50.164;8.012;2023-07-29T08:51:05;70880.06;;;-144.13;77.27
76374;BME280;65197;50.164;8.012;2023-07-29T08:53:31;70885.91;;;-144.13;73.94
76374;BME280;65197;50.164;8.012;2023-07-29T08:55:57;70917.09;;;-144.13;75.40
76374;BME280;65197;50.164;8.012;2023-07-29T08:58:23;70967.78;;;-144.13;77.86
76374;BME280;65197;50.164;8.012;2023-07-29T09:00:50;70987.28;;;-144.13;78.80
76374;BME280;65197;50.164;8.012;2023-07-29T09:03:15;71020.44;;;-144.13;78.45
76374;BME280;65197;50.164;8.012;2023-07-29T09:05:41;71041.88;;;-144.13;74.66
76374;BME280;65197;50.164;8.012;2023-07-29T09:08:06;71041.88;;;-144.13;76.33
76374;BME280;65197;50.164;8.012;2023-07-29T09:10:36;71045.78;;;-144.13;79.47
76374;BME280;65197;50.164;8.012;2023-07-29T09:13:03;71073.06;;;-144.13;81.30
76374;BME280;65197;50.164;8.012;2023-07-29T09:15:30;71100.38;;;-144.13;81.10
76374;BME280;65197;50.164;8.012;2023-07-29T09:17:57;71067.22;;;-144.13;81.40
76374;BME280;65197;50.164;8.012;2023-07-29T09:20:26;70948.31;;;-144.13;75.91
76374;BME280;65197;50.164;8.012;2023-07-29T09:22:54;70850.81;;;-144.13;75.08
76374;BME280;65197;50.164;8.012;2023-07-29T09:25:27;70829.38;;;-144.13;73.74
76374;BME280;65197;50.164;8.012;2023-07-29T09:27:52;70856.69;;;-144.13;71.39
76374;BME280;65197;50.164;8.012;2023-07-29T09:30:23;70975.59;;;-144.13;73.34
76374;BME280;65197;50.164;8.012;2023-07-29T09:32:56;71076.97;;;-144.13;75.22
76374;BME280;65197;50.164;8.012;2023-07-29T09:35:22;71073.06;;;-144.13;79.62
76374;BME280;65197;50.164;8.012;2023-07-29T09:37:47;71069.16;;;-144.13;80.04
76374;BME280;65197;50.164;8.012;2023-07-29T09:40:14;71094.50;;;-144.13;81.34
76374;BME280;65197;50.164;8.012;2023-07-29T09:42:47;71127.66;;;-144.13;81.41
76374;BME280;65197;50.164;8.012;2023-07-29T09:45:19;71125.72;;;-144.13;82.71
76374;BME280;65197;50.164;8.012;2023-07-29T09:47:46;71115.97;;;-144.13;81.41
76374;BME280;65197;50.164;8.012;2023-07-29T09:50:12;71096.47;;;-144.13;80.44
76374;BME280;65197;50.164;8.012;2023-07-29T09:52:37;70995.09;;;-144.13;76.46
76374;BME280;65197;50.164;8.012;2023-07-29T09:55:03;70983.38;;;-144.13;74.29
76374;BME280;65197;50.164;8.012;2023-07-29T09:57:29;70958.03;;;-144.13;72.38
76374;BME280;65197;50.164;8.012;2023-07-29T09:59:56;70960.00;;;-144.13;75.25
76374;BME280;65197;50.164;8.012;2023-07-29T10:02:22;70936.59;;;-144.13;75.10
76374;BME280;65197;50.164;8.012;2023-07-29T10:04:48;70960.00;;;-144.13;74.22
76374;BME280;65197;50.164;8.012;2023-07-29T10:07:14;70999.00;;;-144.13;75.59
76374;BME280;65197;50.164;8.012;2023-07-29T10:09:41;70995.09;;;-144.13;75.08
76374;BME280;65197;50.164;8.012;2023-07-29T10:12:07;71000.94;;;-144.13;75.36
76374;BME280;65197;50.164;8.012;2023-07-29T10:14:34;71016.53;;;-144.13;72.97
76374;BME280;65197;50.164;8.012;2023-07-29T10:17:00;71092.56;;;-144.13;74.63
76374;BME280;65197;50.164;8.012;2023-07-29T10:19:26;71049.66;;;-144.13;75.10
76374;BME280;65197;50.164;8.012;2023-07-29T10:21:52;71006.78;;;-144.13;75.64
76374;BME280;65197;50.164;8.012;2023-07-29T10:24:24;70905.41;;;-144.13;71.77
76374;BME280;65197;50.164;8.012;2023-07-29T10:26:57;70850.81;;;-144.13;65.98
76374;BME280;65197;50.164;8.012;2023-07-29T10:29:23;70804.03;;;-144.13;66.31
76374;BME280;65197;50.164;8.012;2023-07-29T10:31:54;70804.03;;;-144.13;61.72
76374;BME280;65197;50.164;8.012;2023-07-29T10:34:22;70891.75;;;-144.13;62.49
76374;BME280;65197;50.164;8.012;2023-07-29T10:36:49;70850.81;;;-144.13;61.07
76374;BME280;65197;50.164;8.012;2023-07-29T10:39:15;70772.84;;;-144.13;59.90
76374;BME280;65197;50.164;8.012;2023-07-29T10:42:01;70679.28;;;-144.13;57.15
76374;BME280;65197;50.164;8.012;2023-07-29T10:47:17;70593.50;;;-144.13;52.08
76374;BME280;65197;50.164;8.012;2023-07-29T10:49:48;70585.72;;;-144.13;57.34
76374;BME280;65197;50.164;8.012;2023-07-29T10:52:16;70733.88;;;-144.13;56.60
76374;BME280;65197;50.164;8.012;2023-07-29T10:54:43;70770.91;;;-144.13;56.81
76374;BME280;65197;50.164;8.012;2023-07-29T10:57:13;70718.28;;;-144.13;56.84
76374;BME280;65197;50.164;8.012;2023-07-29T10:59:39;70636.41;;;-144.13;55.95
76374;BME280;65197;50.164;8.012;2023-07-29T11:02:15;70609.09;;;-144.13;55.09
76374;BME280;65197;50.164;8.012;2023-07-29T11:04:51;70690.97;;;-144.13;56.03
76374;BME280;65197;50.164;8.012;2023-07-29T11:09:52;70780.66;;;-144.13;57.46
76374;BME280;65197;50.164;8.012;2023-07-29T11:12:34;70796.25;;;-144.13;58.13
76374;BME280;65197;50.164;8.012;2023-07-29T11:15:06;70763.09;;;-144.13;53.80
76374;BME280;65197;50.164;8.012;2023-07-29T11:17:42;70739.72;;;-144.13;53.42
76374;BME280;65197;50.164;8.012;2023-07-29T11:20:08;70749.47;;;-144.13;54.46
76374;BME280;65197;50.164;8.012;2023-07-29T11:22:34;70761.16;;;-144.13;54.27
76374;BME280;65197;50.164;8.012;2023-07-29T11:24:59;70829.38;;;-144.13;56.94
76374;BME280;65197;50.164;8.012;2023-07-29T11:27:25;70909.31;;;-144.13;59.03
76374;BME280;65197;50.164;8.012;2023-07-29T11:29:56;70930.75;;;-144.13;59.10
76374;BME280;65197;50.164;8.012;2023-07-29T11:32:22;70934.66;;;-144.13;60.51
76374;BME280;65197;50.164;8.012;2023-07-29T11:34:48;70770.91;;;-144.13;59.49
76374;BME280;65197;50.164;8.012;2023-07-29T11:37:13;70655.88;;;-144.13;54.02
76374;BME280;65197;50.164;8.012;2023-07-29T11:39:43;70558.44;;;-144.13;51.83
76374;BME280;65197;50.164;8.012;2023-07-29T11:42:13;70515.53;;;-144.13;49.29
76374;BME280;65197;50.164;8.012;2023-07-29T11:44:39;70496.03;;;-144.13;50.46
76374;BME280;65197;50.164;8.012;2023-07-29T11:47:08;70540.88;;;-144.13;50.95
76374;BME280;65197;50.164;8.012;2023-07-29T11:49:39;70671.47;;;-144.13;50.70
76374;BME280;65197;50.164;8.012;2023-07-29T11:52:09;70741.66;;;-144.13;53.08
76374;BME280;65197;50.164;8.012;2023-07-29T11:54:36;70792.34;;;-144.13;57.37
76374;BME280;65197;50.164;8.012;2023-07-29T11:57:04;70728.00;;;-144.13;56.00
76374;BME280;65197;50.164;8.012;2023-07-29T11:59:32;70671.47;;;-144.13;51.45
76374;BME280;65197;50.164;8.012;2023-07-29T12:01:58;70751.41;;;-144.13;51.77
76374;BME280;65197;50.164;8.012;2023-07-29T12:04:25;70802.09;;;-144.13;52.34
76374;BME280;65197;50.164;8.012;2023-07-29T12:06:51;70819.63;;;-144.13;53.86
76374;BME280;65197;50.164;8.012;2023-07-29T12:09:16;70870.31;;;-144.13;54.49
76374;BME280;65197;50.164;8.012;2023-07-29T12:11:42;70897.63;;;-144.13;54.36
76374;BME280;65197;50.164;8.012;2023-07-29T12:14:07;70907.38;;;-144.13;55.51
76374;BME280;65197;50.164;8.012;2023-07-29T12:16:43;70922.97;;;-144.13;58.19
76374;BME280;65197;50.164;8.012;2023-07-29T12:19:12;70956.09;;;-144.13;57.73
76374;BME280;65197;50.164;8.012;2023-07-29T12:21:38;70956.09;;;-144.13;59.33
76374;BME280;65197;50.164;8.012;2023-07-29T12:24:03;70963.91;;;-144.13;59.05
76374;BME280;65197;50.164;8.012;2023-07-29T12:26:30;70981.44;;;-144.13;59.08
76374;BME280;65197;50.164;8.012;2023-07-29T12:28:55;70960.00;;;-144.13;59.41
76374;BME280;65197;50.164;8.012;2023-07-29T12:31:22;70952.19;;;-144.13;57.34
76374;BME280;65197;50.164;8.012;2023-07-29T12:33:56;70946.34;;;-144.13;58.71
76374;BME280;65197;50.164;8.012;2023-07-29T12:36:21;70952.19;;;-144.13;59.93
76374;BME280;65197;50.164;8.012;2023-07-29T12:38:47;70967.78;;;-144.13;58.14
76374;BME280;65197;50.164;8.012;2023-07-29T12:41:12;70960.00;;;-144.13;59.01
76374;BME280;65197;50.164;8.012;2023-07-29T12:43:38;70967.78;;;-144.13;58.51
76374;BME280;65197;50.164;8.012;2023-07-29T12:46:04;70975.59;;;-144.13;58.46